createdAt,value
2023-05-19T00:00:56.901Z,94985.00
2023-05-19T00:01:56.965Z,94985.00
2023-05-19T00:02:57.022Z,94983.00
2023-05-19T00:03:56.911Z,94985.00
2023-05-19T00:04:56.908Z,94981.00
2023-05-19T00:05:57.025Z,94981.00
2023-05-19T00:06:56.921Z,94979.00
2023-05-19T00:07:56.924Z,94981.00
2023-05-19T00:08:56.942Z,94981.00
2023-05-19T00:09:56.974Z,94979.00
2023-05-19T00:10:56.967Z,94979.00
2023-05-19T00:11:56.978Z,94979.00
2023-05-19T00:12:56.968Z,94979.00
2023-05-19T00:13:56.975Z,94975.00
2023-05-19T00:14:56.969Z,94977.00
2023-05-19T00:15:57.009Z,94977.00
2023-05-19T00:16:56.984Z,94977.00
2023-05-19T00:17:57.027Z,94975.00
2023-05-19T00:18:57.085Z,94979.00
2023-05-19T00:19:57.041Z,94977.00
2023-05-19T00:20:57.039Z,94977.00
2023-05-19T00:21:57.046Z,94979.00
2023-05-19T00:22:57.054Z,94979.00
2023-05-19T00:23:57.087Z,94977.00
2023-05-19T00:24:57.091Z,94979.00
2023-05-19T00:25:57.098Z,94979.00
2023-05-19T00:26:57.116Z,94981.00
2023-05-19T00:27:57.133Z,94981.00
2023-05-19T00:28:57.150Z,94977.00
2023-05-19T00:29:57.157Z,94983.00
2023-05-19T00:30:57.220Z,94979.00
2023-05-19T00:31:57.214Z,94981.00
2023-05-19T00:32:57.245Z,94983.00
2023-05-19T00:33:57.226Z,94981.00
2023-05-19T00:34:57.241Z,94983.00
2023-05-19T00:35:57.266Z,94981.00
2023-05-19T00:36:57.275Z,94981.00
2023-05-19T00:37:57.311Z,94981.00
2023-05-19T00:38:57.335Z,94981.00
2023-05-19T00:39:57.342Z,94977.00
2023-05-19T00:40:57.381Z,94979.00
2023-05-19T00:41:57.354Z,94977.00
2023-05-19T00:42:57.523Z,94977.00
2023-05-19T00:43:57.399Z,94975.00
2023-05-19T00:44:57.416Z,94975.00
2023-05-19T00:45:57.451Z,94975.00
2023-05-19T00:46:57.473Z,94975.00
2023-05-19T00:47:57.475Z,94973.00
2023-05-19T00:48:57.455Z,94973.00
2023-05-19T00:49:57.468Z,94973.00
2023-05-19T00:50:57.490Z,94971.00
2023-05-19T00:51:57.509Z,94969.00
2023-05-19T00:52:57.521Z,94967.00
2023-05-19T00:53:57.508Z,94969.00
2023-05-19T00:54:57.506Z,94969.00
2023-05-19T00:55:57.534Z,94971.00
2023-05-19T00:56:57.520Z,94969.00
2023-05-19T00:57:57.545Z,94969.00
2023-05-19T00:58:57.557Z,94969.00
2023-05-19T00:59:57.577Z,94969.00
2023-05-19T01:00:57.634Z,94969.00
2023-05-19T01:01:57.608Z,94969.00
2023-05-19T01:02:57.732Z,94969.00
2023-05-19T01:03:57.658Z,94971.00
2023-05-19T01:04:57.644Z,94969.00
2023-05-19T01:05:57.661Z,94971.00
2023-05-19T01:06:57.695Z,94969.00
2023-05-19T01:07:57.699Z,94965.00
2023-05-19T01:08:57.740Z,94967.00
2023-05-19T01:09:57.736Z,94967.00
2023-05-19T01:10:57.763Z,94965.00
2023-05-19T01:11:57.780Z,94963.00
2023-05-19T01:12:57.802Z,94963.00
2023-05-19T01:13:57.821Z,94963.00
2023-05-19T01:14:57.866Z,94963.00
2023-05-19T01:15:57.902Z,94961.00
2023-05-19T01:16:57.874Z,94963.00
2023-05-19T01:17:57.898Z,94963.00
2023-05-19T01:18:57.906Z,94963.00
2023-05-19T01:19:57.900Z,94965.00
2023-05-19T01:20:57.913Z,94965.00
2023-05-19T01:21:57.917Z,94963.00
2023-05-19T01:22:57.927Z,94963.00
2023-05-19T01:23:57.955Z,94963.00
2023-05-19T01:24:57.966Z,94963.00
2023-05-19T01:25:57.971Z,94963.00
2023-05-19T01:26:58.009Z,94963.00
2023-05-19T01:27:58.035Z,94963.00
2023-05-19T01:28:58.040Z,94963.00
2023-05-19T01:29:58.042Z,94961.00
2023-05-19T01:30:58.071Z,94961.00
2023-05-19T01:31:58.167Z,94961.00
2023-05-19T01:32:58.142Z,94959.00
2023-05-19T01:33:58.102Z,94959.00
2023-05-19T01:34:58.132Z,94961.00
2023-05-19T01:35:58.165Z,94961.00
2023-05-19T01:36:58.151Z,94959.00
2023-05-19T01:37:58.171Z,94961.00
2023-05-19T01:38:58.181Z,94963.00
2023-05-19T01:39:58.185Z,94961.00
2023-05-19T01:40:58.223Z,94963.00
2023-05-19T01:41:58.219Z,94967.00
2023-05-19T01:42:58.235Z,94967.00
2023-05-19T01:43:58.235Z,94965.00
2023-05-19T01:44:58.247Z,94967.00
2023-05-19T01:45:58.286Z,94967.00
2023-05-19T01:46:58.248Z,94963.00
2023-05-19T01:47:58.339Z,94963.00
2023-05-19T01:48:58.276Z,94963.00
2023-05-19T01:49:58.289Z,94961.00
2023-05-19T01:50:58.313Z,94963.00
2023-05-19T01:51:58.287Z,94963.00
2023-05-19T01:52:58.294Z,94961.00
2023-05-19T01:53:58.310Z,94963.00
2023-05-19T01:54:58.335Z,94963.00
2023-05-19T01:55:58.389Z,94963.00
2023-05-19T01:56:58.345Z,94965.00
2023-05-19T01:57:58.348Z,94967.00
2023-05-19T01:58:58.352Z,94967.00
2023-05-19T01:59:58.375Z,94965.00
2023-05-19T02:00:58.414Z,94967.00
2023-05-19T02:01:58.423Z,94965.00
2023-05-19T02:02:58.473Z,94967.00
2023-05-19T02:03:58.496Z,94969.00
2023-05-19T02:04:58.521Z,94967.00
2023-05-19T02:05:58.535Z,94967.00
2023-05-19T02:06:58.539Z,94969.00
2023-05-19T02:07:58.542Z,94967.00
2023-05-19T02:08:58.578Z,94969.00
2023-05-19T02:09:58.577Z,94967.00
2023-05-19T02:10:58.621Z,94971.00
2023-05-19T02:11:58.602Z,94971.00
2023-05-19T02:12:58.611Z,94973.00
2023-05-19T02:13:58.614Z,94971.00
2023-05-19T02:14:58.619Z,94973.00
2023-05-19T02:15:58.717Z,94975.00
2023-05-19T02:16:58.644Z,94973.00
2023-05-19T02:17:58.692Z,94973.00
2023-05-19T02:18:58.682Z,94973.00
2023-05-19T02:19:58.660Z,94973.00
2023-05-19T02:20:58.687Z,94973.00
2023-05-19T02:21:58.682Z,94973.00
2023-05-19T02:22:58.693Z,94969.00
2023-05-19T02:23:58.709Z,94971.00
2023-05-19T02:24:58.698Z,94971.00
2023-05-19T02:25:58.729Z,94969.00
2023-05-19T02:26:58.758Z,94971.00
2023-05-19T02:27:58.737Z,94969.00
2023-05-19T02:28:58.708Z,94967.00
2023-05-19T02:29:58.721Z,94969.00
2023-05-19T02:30:58.711Z,94969.00
2023-05-19T02:31:58.780Z,94967.00
2023-05-19T02:32:58.735Z,94969.00
2023-05-19T02:33:58.707Z,94967.00
2023-05-19T02:34:58.712Z,94971.00
2023-05-19T02:35:58.708Z,94973.00
2023-05-19T02:36:58.714Z,94969.00
2023-05-19T02:37:58.709Z,94971.00
2023-05-19T02:38:58.711Z,94971.00
2023-05-19T02:39:58.699Z,94973.00
2023-05-19T02:40:58.725Z,94973.00
2023-05-19T02:41:58.695Z,94973.00
2023-05-19T02:42:58.711Z,94967.00
2023-05-19T02:43:58.706Z,94969.00
2023-05-19T02:44:58.690Z,94967.00
2023-05-19T02:45:58.883Z,94969.00
2023-05-19T02:46:58.730Z,94965.00
2023-05-19T02:47:58.860Z,94967.00
2023-05-19T02:48:58.776Z,94969.00
2023-05-19T02:49:58.771Z,94967.00
2023-05-19T02:50:58.771Z,94967.00
2023-05-19T02:51:58.781Z,94967.00
2023-05-19T02:52:58.786Z,94965.00
2023-05-19T02:53:58.809Z,94969.00
2023-05-19T02:54:58.805Z,94963.00
2023-05-19T02:55:58.814Z,94967.00
2023-05-19T02:56:58.822Z,94967.00
2023-05-19T02:57:58.834Z,94965.00
2023-05-19T02:58:58.855Z,94963.00
2023-05-19T02:59:58.856Z,94961.00
2023-05-19T03:00:58.853Z,94963.00
2023-05-19T03:01:58.912Z,94961.00
2023-05-19T03:02:58.914Z,94961.00
2023-05-19T03:03:58.972Z,94957.00
2023-05-19T03:04:58.906Z,94957.00
2023-05-19T03:05:58.906Z,94957.00
2023-05-19T03:06:58.906Z,94957.00
2023-05-19T03:07:58.937Z,94957.00
2023-05-19T03:08:58.913Z,94957.00
2023-05-19T03:09:58.920Z,94957.00
2023-05-19T03:10:58.931Z,94955.00
2023-05-19T03:11:58.943Z,94949.00
2023-05-19T03:12:58.956Z,94955.00
2023-05-19T03:13:58.952Z,94957.00
2023-05-19T03:14:58.949Z,94955.00
2023-05-19T03:15:59.074Z,94955.00
2023-05-19T03:16:59.036Z,94951.00
2023-05-19T03:17:59.028Z,94955.00
2023-05-19T03:18:59.068Z,94949.00
2023-05-19T03:19:59.055Z,94949.00
2023-05-19T03:20:59.082Z,94955.00
2023-05-19T03:21:59.092Z,94949.00
2023-05-19T03:22:59.112Z,94953.00
2023-05-19T03:23:59.143Z,94955.00
2023-05-19T03:24:59.149Z,94947.00
2023-05-19T03:25:59.185Z,94947.00
2023-05-19T03:26:59.216Z,94947.00
2023-05-19T03:27:59.237Z,94945.00
2023-05-19T03:28:59.259Z,94947.00
2023-05-19T03:29:59.282Z,94947.00
2023-05-19T03:30:59.307Z,94949.00
2023-05-19T03:31:59.342Z,94947.00
2023-05-19T03:32:59.396Z,94949.00
2023-05-19T03:33:59.389Z,94947.00
2023-05-19T03:34:59.392Z,94947.00
2023-05-19T03:35:59.426Z,94947.00
2023-05-19T03:36:59.450Z,94945.00
2023-05-19T03:37:59.457Z,94947.00
2023-05-19T03:38:59.482Z,94945.00
2023-05-19T03:39:59.501Z,94942.00
2023-05-19T03:40:59.540Z,94942.00
2023-05-19T03:41:59.555Z,94945.00
2023-05-19T03:42:59.578Z,94942.00
2023-05-19T03:43:59.608Z,94945.00
2023-05-19T03:44:59.634Z,94942.00
2023-05-19T03:45:59.701Z,94940.00
2023-05-19T03:46:59.692Z,94940.00
2023-05-19T03:47:59.747Z,94940.00
2023-05-19T03:48:59.733Z,94942.00
2023-05-19T03:49:59.761Z,94940.00
2023-05-19T03:50:59.790Z,94938.00
2023-05-19T03:51:59.820Z,94940.00
2023-05-19T03:52:59.833Z,94942.00
2023-05-19T03:53:59.851Z,94944.00
2023-05-19T03:54:59.879Z,94942.00
2023-05-19T03:55:59.906Z,94944.00
2023-05-19T03:56:59.926Z,94947.00
2023-05-19T03:57:59.949Z,94947.00
2023-05-19T03:58:59.981Z,94949.00
2023-05-19T04:00:00.024Z,94951.00
2023-05-19T04:01:00.026Z,94953.00
2023-05-19T04:02:00.095Z,94951.00
2023-05-19T04:03:00.262Z,94949.00
2023-05-19T04:04:00.185Z,94949.00
2023-05-19T04:05:00.142Z,94949.00
2023-05-19T04:06:00.186Z,94945.00
2023-05-19T04:07:00.225Z,94945.00
2023-05-19T04:08:00.230Z,94944.00
2023-05-19T04:09:00.265Z,94944.00
2023-05-19T04:10:00.319Z,94942.00
2023-05-19T04:11:00.341Z,94942.00
2023-05-19T04:12:00.355Z,94944.00
2023-05-19T04:13:00.392Z,94942.00
2023-05-19T04:14:00.415Z,94942.00
2023-05-19T04:15:00.451Z,94944.00
2023-05-19T04:16:00.465Z,94944.00
2023-05-19T04:17:00.490Z,94945.00
2023-05-19T04:18:00.541Z,94944.00
2023-05-19T04:19:00.586Z,94945.00
2023-05-19T04:20:00.554Z,94944.00
2023-05-19T04:21:00.596Z,94945.00
2023-05-19T04:22:00.593Z,94945.00
2023-05-19T04:23:00.599Z,94945.00
2023-05-19T04:24:00.612Z,94947.00
2023-05-19T04:25:00.631Z,94947.00
2023-05-19T04:26:00.687Z,94949.00
2023-05-19T04:27:00.677Z,94947.00
2023-05-19T04:28:00.727Z,94947.00
2023-05-19T04:29:00.728Z,94953.00
2023-05-19T04:30:00.743Z,94951.00
2023-05-19T04:31:00.788Z,94953.00
2023-05-19T04:32:00.788Z,94957.00
2023-05-19T04:33:00.820Z,94953.00
2023-05-19T04:34:00.837Z,94953.00
2023-05-19T04:35:00.853Z,94951.00
2023-05-19T04:36:00.912Z,94955.00
2023-05-19T04:37:00.894Z,94957.00
2023-05-19T04:38:00.948Z,94957.00
2023-05-19T04:39:00.944Z,94957.00
2023-05-19T04:40:00.960Z,94957.00
2023-05-19T04:41:00.986Z,94959.00
2023-05-19T04:42:01.031Z,94957.00
2023-05-19T04:43:01.143Z,94959.00
2023-05-19T04:44:01.064Z,94959.00
2023-05-19T04:45:01.076Z,94961.00
2023-05-19T04:46:01.140Z,94959.00
2023-05-19T04:47:01.166Z,94961.00
2023-05-19T04:48:01.179Z,94963.00
2023-05-19T04:49:01.160Z,94955.00
2023-05-19T04:50:01.192Z,94953.00
2023-05-19T04:51:01.184Z,94953.00
2023-05-19T04:52:01.222Z,94951.00
2023-05-19T04:53:01.220Z,94949.00
2023-05-19T04:54:01.250Z,94951.00
2023-05-19T04:55:01.273Z,94955.00
2023-05-19T04:56:01.310Z,94959.00
2023-05-19T04:57:01.293Z,94957.00
2023-05-19T04:58:01.286Z,94961.00
2023-05-19T04:59:01.293Z,94963.00
2023-05-19T05:00:01.307Z,94963.00
2023-05-19T05:01:01.303Z,94959.00
2023-05-19T05:02:01.371Z,94961.00
2023-05-19T05:03:01.411Z,94959.00
2023-05-19T05:04:01.371Z,94957.00
2023-05-19T05:05:01.334Z,94957.00
2023-05-19T05:06:01.381Z,94957.00
2023-05-19T05:07:01.409Z,94953.00
2023-05-19T05:08:01.378Z,94953.00
2023-05-19T05:09:01.375Z,94953.00
2023-05-19T05:10:01.382Z,94955.00
2023-05-19T05:11:01.409Z,94955.00
2023-05-19T05:12:01.411Z,94957.00
2023-05-19T05:13:01.424Z,94955.00
2023-05-19T05:14:01.431Z,94953.00
2023-05-19T05:15:01.450Z,94955.00
2023-05-19T05:16:01.498Z,94955.00
2023-05-19T05:17:01.448Z,94959.00
2023-05-19T05:18:01.462Z,94955.00
2023-05-19T05:19:01.470Z,94955.00
2023-05-19T05:20:01.479Z,94957.00
2023-05-19T05:21:01.523Z,94953.00
2023-05-19T05:22:01.418Z,94957.00
2023-05-19T05:23:01.403Z,94959.00
2023-05-19T05:24:01.407Z,94959.00
2023-05-19T05:25:01.437Z,94957.00
2023-05-19T05:26:01.383Z,94959.00
2023-05-19T05:27:01.404Z,94957.00
2023-05-19T05:28:01.407Z,94955.00
2023-05-19T05:29:01.427Z,94957.00
2023-05-19T05:30:01.439Z,94957.00
2023-05-19T05:31:01.444Z,94957.00
2023-05-19T05:32:01.500Z,94959.00
2023-05-19T05:33:01.620Z,94961.00
2023-05-19T05:34:01.511Z,94959.00
2023-05-19T05:35:01.555Z,94957.00
2023-05-19T05:36:01.613Z,94955.00
2023-05-19T05:37:01.591Z,94953.00
2023-05-19T05:38:01.638Z,94951.00
2023-05-19T05:39:01.626Z,94947.00
2023-05-19T05:40:01.657Z,94945.00
2023-05-19T05:41:01.697Z,94947.00
2023-05-19T05:42:01.698Z,94949.00
2023-05-19T05:43:01.726Z,94951.00
2023-05-19T05:44:01.732Z,94955.00
2023-05-19T05:45:01.762Z,94955.00
2023-05-19T05:46:01.875Z,94955.00
2023-05-19T05:47:01.785Z,94957.00
2023-05-19T05:48:01.826Z,94951.00
2023-05-19T05:49:01.802Z,94955.00
2023-05-19T05:50:01.802Z,94951.00
2023-05-19T05:51:01.817Z,94949.00
2023-05-19T05:52:06.191Z,94951.00
2023-05-19T05:53:01.817Z,94949.00
2023-05-19T05:54:01.818Z,94947.00
2023-05-19T05:55:01.827Z,94947.00
2023-05-19T05:56:01.829Z,94949.00
2023-05-19T05:57:01.808Z,94947.00
2023-05-19T05:58:01.805Z,94951.00
2023-05-19T05:59:01.788Z,94951.00
2023-05-19T06:00:01.765Z,94951.00
2023-05-19T06:01:01.756Z,94951.00
2023-05-19T06:02:01.809Z,94949.00
2023-05-19T06:03:01.898Z,94949.00
2023-05-19T06:04:01.761Z,94951.00
2023-05-19T06:05:01.834Z,94953.00
2023-05-19T06:06:01.783Z,94949.00
2023-05-19T06:07:01.778Z,94947.00
2023-05-19T06:08:01.730Z,94947.00
2023-05-19T06:09:01.733Z,94951.00
2023-05-19T06:10:01.696Z,94949.00
2023-05-19T06:11:01.710Z,94947.00
2023-05-19T06:12:01.678Z,94945.00
2023-05-19T06:13:01.668Z,94949.00
2023-05-19T06:14:01.693Z,94947.00
2023-05-19T06:15:01.673Z,94949.00
2023-05-19T06:16:02.283Z,94951.00
2023-05-19T06:17:01.676Z,94947.00
2023-05-19T06:18:01.720Z,94949.00
2023-05-19T06:19:01.652Z,94949.00
2023-05-19T06:20:01.614Z,94953.00
2023-05-19T06:21:01.621Z,94951.00
2023-05-19T06:22:01.621Z,94951.00
2023-05-19T06:23:01.597Z,94951.00
2023-05-19T06:24:01.589Z,94953.00
2023-05-19T06:25:01.607Z,94947.00
2023-05-19T06:26:01.593Z,94947.00
2023-05-19T06:27:01.573Z,94944.00
2023-05-19T06:28:01.566Z,94945.00
2023-05-19T06:29:01.557Z,94940.00
2023-05-19T06:30:01.561Z,94944.00
2023-05-19T06:31:01.565Z,94944.00
2023-05-19T06:32:01.544Z,94944.00
2023-05-19T06:33:01.568Z,94944.00
2023-05-19T06:34:01.535Z,94944.00
2023-05-19T06:35:01.528Z,94942.00
2023-05-19T06:36:01.511Z,94944.00
2023-05-19T06:37:01.511Z,94944.00
2023-05-19T06:38:01.498Z,94940.00
2023-05-19T06:39:02.830Z,94942.00
2023-05-19T06:40:01.489Z,94942.00
2023-05-19T06:41:01.478Z,94942.00
2023-05-19T06:42:01.478Z,94942.00
2023-05-19T06:43:01.485Z,94940.00
2023-05-19T06:44:01.482Z,94940.00
2023-05-19T06:45:01.491Z,94938.00
2023-05-19T06:46:01.458Z,94940.00
2023-05-19T06:47:01.524Z,94942.00
2023-05-19T06:48:01.478Z,94942.00
2023-05-19T06:49:01.524Z,94944.00
2023-05-19T06:50:01.435Z,94942.00
2023-05-19T06:51:01.462Z,94940.00
2023-05-19T06:52:01.429Z,94940.00
2023-05-19T06:53:01.434Z,94940.00
2023-05-19T06:54:01.414Z,94940.00
2023-05-19T06:55:01.426Z,94938.00
2023-05-19T06:56:01.407Z,94942.00
2023-05-19T06:57:01.400Z,94940.00
2023-05-19T06:58:01.398Z,94940.00
2023-05-19T06:59:01.388Z,94940.00
2023-05-19T07:00:01.411Z,94936.00
2023-05-19T07:01:01.377Z,94938.00
2023-05-19T07:02:01.413Z,94938.00
2023-05-19T07:03:01.539Z,94938.00
2023-05-19T07:04:01.487Z,94940.00
2023-05-19T07:05:01.413Z,94936.00
2023-05-19T07:06:01.406Z,94942.00
2023-05-19T07:07:01.414Z,94938.00
2023-05-19T07:08:01.421Z,94938.00
2023-05-19T07:09:01.438Z,94936.00
2023-05-19T07:10:01.431Z,94936.00
2023-05-19T07:11:01.457Z,94936.00
2023-05-19T07:12:01.429Z,94936.00
2023-05-19T07:13:01.460Z,94936.00
2023-05-19T07:14:01.463Z,94934.00
2023-05-19T07:15:01.528Z,94936.00
2023-05-19T07:16:01.567Z,94934.00
2023-05-19T07:17:01.491Z,94930.00
2023-05-19T07:18:01.565Z,94930.00
2023-05-19T07:19:01.525Z,94930.00
2023-05-19T07:20:01.538Z,94930.00
2023-05-19T07:21:01.489Z,94928.00
2023-05-19T07:22:01.475Z,94930.00
2023-05-19T07:23:01.580Z,94928.00
2023-05-19T07:24:01.485Z,94928.00
2023-05-19T07:25:01.506Z,94926.00
2023-05-19T07:26:01.509Z,94922.00
2023-05-19T07:27:01.515Z,94922.00
2023-05-19T07:28:01.512Z,94922.00
2023-05-19T07:29:01.518Z,94918.00
2023-05-19T07:30:01.516Z,94918.00
2023-05-19T07:31:01.542Z,94916.00
2023-05-19T07:32:01.539Z,94914.00
2023-05-19T07:33:01.546Z,94906.00
2023-05-19T07:34:01.595Z,94906.00
2023-05-19T07:35:01.575Z,94916.00
2023-05-19T07:36:01.553Z,94906.00
2023-05-19T07:37:01.559Z,94906.00
2023-05-19T07:38:01.556Z,94906.00
2023-05-19T07:39:01.616Z,94914.00
2023-05-19T07:40:01.561Z,94906.00
2023-05-19T07:41:01.606Z,94904.00
2023-05-19T07:42:01.574Z,94902.00
2023-05-19T07:43:01.570Z,94900.00
2023-05-19T07:44:01.581Z,94900.00
2023-05-19T07:45:01.634Z,94898.00
2023-05-19T07:46:01.623Z,94896.00
2023-05-19T07:47:01.601Z,94896.00
2023-05-19T07:48:01.610Z,94896.00
2023-05-19T07:49:01.589Z,94894.00
2023-05-19T07:50:01.632Z,94898.00
2023-05-19T07:51:01.613Z,94894.00
2023-05-19T07:52:01.649Z,94894.00
2023-05-19T07:53:01.655Z,94892.00
2023-05-19T07:54:01.658Z,94891.00
2023-05-19T07:55:01.689Z,94891.00
2023-05-19T07:56:01.699Z,94889.00
2023-05-19T07:57:01.737Z,94891.00
2023-05-19T07:58:01.773Z,94891.00
2023-05-19T07:59:01.790Z,94889.00
2023-05-19T08:00:01.842Z,94887.00
2023-05-19T08:01:01.885Z,94889.00
2023-05-19T08:02:01.963Z,94887.00
2023-05-19T08:03:02.038Z,94887.00
2023-05-19T08:04:02.208Z,94885.00
2023-05-19T08:05:02.010Z,94883.00
2023-05-19T08:06:02.013Z,94887.00
2023-05-19T08:07:02.063Z,94885.00
2023-05-19T08:08:02.060Z,94883.00
2023-05-19T08:09:02.084Z,94883.00
2023-05-19T08:10:02.134Z,94883.00
2023-05-19T08:11:02.217Z,94881.00
2023-05-19T08:12:02.173Z,94879.00
2023-05-19T08:13:02.167Z,94879.00
2023-05-19T08:14:02.203Z,94879.00
2023-05-19T08:15:02.249Z,94879.00
2023-05-19T08:16:02.348Z,94879.00
2023-05-19T08:17:02.319Z,94879.00
2023-05-19T08:18:02.447Z,94873.00
2023-05-19T08:19:02.394Z,94879.00
2023-05-19T08:20:02.283Z,94875.00
2023-05-19T08:21:02.273Z,94875.00
2023-05-19T08:22:02.277Z,94877.00
2023-05-19T08:23:02.254Z,94871.00
2023-05-19T08:24:02.247Z,94875.00
2023-05-19T08:25:02.271Z,94873.00
2023-05-19T08:26:02.269Z,94873.00
2023-05-19T08:27:02.231Z,94869.00
2023-05-19T08:28:02.258Z,94869.00
2023-05-19T08:29:02.227Z,94867.00
2023-05-19T08:30:02.229Z,94865.00
2023-05-19T08:31:02.291Z,94865.00
2023-05-19T08:32:02.222Z,94865.00
2023-05-19T08:33:02.302Z,94863.00
2023-05-19T08:34:02.225Z,94865.00
2023-05-19T08:35:02.192Z,94865.00
2023-05-19T08:36:02.189Z,94863.00
2023-05-19T08:37:02.202Z,94861.00
2023-05-19T08:38:02.246Z,94861.00
2023-05-19T08:39:02.277Z,94861.00
2023-05-19T08:40:02.326Z,94859.00
2023-05-19T08:41:02.412Z,94865.00
2023-05-19T08:42:02.401Z,94863.00
2023-05-19T08:43:02.459Z,94865.00
2023-05-19T08:44:02.449Z,94865.00
2023-05-19T08:45:02.524Z,94865.00
2023-05-19T08:46:02.553Z,94859.00
2023-05-19T08:47:02.663Z,94865.00
2023-05-19T08:48:02.657Z,94859.00
2023-05-19T08:49:02.651Z,94859.00
2023-05-19T08:50:02.689Z,94859.00
2023-05-19T08:51:02.739Z,94861.00
2023-05-19T08:52:02.805Z,94857.00
2023-05-19T08:53:02.906Z,94857.00
2023-05-19T08:54:02.918Z,94852.00
2023-05-19T08:55:02.982Z,94852.00
2023-05-19T08:56:03.050Z,94846.00
2023-05-19T08:57:03.143Z,94842.00
2023-05-19T08:58:03.133Z,94842.00
2023-05-19T08:59:03.188Z,94838.00
2023-05-19T09:00:03.231Z,94838.00
2023-05-19T09:01:03.328Z,94838.00
2023-05-19T09:02:03.388Z,94836.00
2023-05-19T09:04:03.496Z,94836.00
2023-05-19T09:05:03.416Z,94836.00
2023-05-19T09:06:03.394Z,94836.00
2023-05-19T09:07:03.389Z,94836.00
2023-05-19T09:08:03.383Z,94836.00
2023-05-19T09:09:03.381Z,94836.00
2023-05-19T09:10:03.348Z,94832.00
2023-05-19T09:11:03.339Z,94826.00
2023-05-19T09:12:03.335Z,94824.00
2023-05-19T09:13:03.331Z,94826.00
2023-05-19T09:14:03.319Z,94826.00
2023-05-19T09:15:03.316Z,94822.00
2023-05-19T09:16:03.367Z,94822.00
2023-05-19T09:17:03.425Z,94824.00
2023-05-19T09:18:03.330Z,94818.00
2023-05-19T09:19:03.349Z,94820.00
2023-05-19T09:20:03.274Z,94818.00
2023-05-19T09:21:03.506Z,94820.00
2023-05-19T09:22:03.299Z,94818.00
2023-05-19T09:23:03.250Z,94818.00
2023-05-19T09:24:03.252Z,94816.00
2023-05-19T09:25:03.232Z,94814.00
2023-05-19T09:26:03.225Z,94810.00
2023-05-19T09:27:03.290Z,94808.00
2023-05-19T09:28:03.236Z,94808.00
2023-05-19T09:29:03.207Z,94805.00
2023-05-19T09:30:03.209Z,94806.00
2023-05-19T09:31:03.233Z,94805.00
2023-05-19T09:32:03.257Z,94810.00
2023-05-19T09:33:03.198Z,94801.00
2023-05-19T09:34:03.169Z,94799.00
2023-05-19T09:35:03.161Z,94801.00
2023-05-19T09:36:03.155Z,94801.00
2023-05-19T09:37:03.152Z,94797.00
2023-05-19T09:38:03.146Z,94797.00
2023-05-19T09:39:03.136Z,94795.00
2023-05-19T09:40:03.149Z,94797.00
2023-05-19T09:41:03.130Z,94793.00
2023-05-19T09:42:03.110Z,94795.00
2023-05-19T09:43:03.098Z,94791.00
2023-05-19T09:44:03.090Z,94795.00
2023-05-19T09:45:03.144Z,94793.00
2023-05-19T09:46:03.249Z,94793.00
2023-05-19T09:47:03.330Z,94793.00
2023-05-19T09:48:03.393Z,94793.00
2023-05-19T09:49:03.355Z,94789.00
2023-05-19T09:50:03.404Z,94785.00
2023-05-19T09:51:03.452Z,94781.00
2023-05-19T09:52:03.505Z,94779.00
2023-05-19T09:53:03.535Z,94775.00
2023-05-19T09:54:03.569Z,94779.00
2023-05-19T09:55:03.615Z,94775.00
2023-05-19T09:56:03.756Z,94771.00
2023-05-19T09:57:03.749Z,94775.00
2023-05-19T09:58:03.775Z,94767.00
2023-05-19T09:59:03.846Z,94775.00
2023-05-19T10:00:03.931Z,94771.00
2023-05-19T10:01:03.972Z,94767.00
2023-05-19T10:02:04.046Z,94761.00
2023-05-19T10:03:04.093Z,94761.00
2023-05-19T10:04:05.976Z,94757.00
2023-05-19T10:05:04.243Z,94753.00
2023-05-19T10:06:04.249Z,94753.00
2023-05-19T10:07:04.351Z,94759.00
2023-05-19T10:08:04.375Z,94755.00
2023-05-19T10:09:04.434Z,94753.00
2023-05-19T10:10:04.508Z,94748.00
2023-05-19T10:11:04.562Z,94750.00
2023-05-19T10:12:04.651Z,94744.00
2023-05-19T10:13:04.732Z,94744.00
2023-05-19T10:14:04.765Z,94746.00
2023-05-19T10:15:04.849Z,94744.00
2023-05-19T10:16:04.903Z,94740.00
2023-05-19T10:17:05.005Z,94738.00
2023-05-19T10:18:04.993Z,94738.00
2023-05-19T10:19:05.149Z,94738.00
2023-05-19T10:20:05.101Z,94736.00
2023-05-19T10:21:05.169Z,94738.00
2023-05-19T10:22:05.245Z,94740.00
2023-05-19T10:23:05.288Z,94740.00
2023-05-19T10:24:05.350Z,94738.00
2023-05-19T10:25:05.410Z,94738.00
2023-05-19T10:26:05.458Z,94736.00
2023-05-19T10:27:05.595Z,94738.00
2023-05-19T10:28:05.598Z,94732.00
2023-05-19T10:29:05.655Z,94732.00
2023-05-19T10:30:05.746Z,94726.00
2023-05-19T10:31:05.772Z,94724.00
2023-05-19T10:32:05.924Z,94722.00
2023-05-19T10:33:05.960Z,94722.00
2023-05-19T10:34:05.995Z,94720.00
2023-05-19T10:35:06.013Z,94718.00
2023-05-19T10:36:06.084Z,94718.00
2023-05-19T10:37:06.158Z,94712.00
2023-05-19T10:38:06.205Z,94711.00
2023-05-19T10:39:06.272Z,94711.00
2023-05-19T10:40:06.326Z,94707.00
2023-05-19T10:41:06.402Z,94709.00
2023-05-19T10:42:06.453Z,94705.00
2023-05-19T10:43:06.501Z,94707.00
2023-05-19T10:44:06.540Z,94707.00
2023-05-19T10:45:06.622Z,94705.00
2023-05-19T10:46:06.658Z,94707.00
2023-05-19T10:47:06.715Z,94705.00
2023-05-19T10:48:06.780Z,94707.00
2023-05-19T10:49:06.785Z,94705.00
2023-05-19T10:50:06.888Z,94703.00
2023-05-19T10:51:06.984Z,94705.00
2023-05-19T10:52:06.932Z,94705.00
2023-05-19T10:53:06.959Z,94705.00
2023-05-19T10:54:07.011Z,94701.00
2023-05-19T10:55:07.053Z,94699.00
2023-05-19T10:56:07.102Z,94695.00
2023-05-19T10:57:07.203Z,94693.00
2023-05-19T10:58:07.209Z,94695.00
2023-05-19T10:59:07.287Z,94695.00
2023-05-19T11:00:07.340Z,94691.00
2023-05-19T11:01:07.408Z,94691.00
2023-05-19T11:02:07.517Z,94691.00
2023-05-19T11:03:07.566Z,94691.00
2023-05-19T11:04:07.705Z,94689.00
2023-05-19T11:05:07.742Z,94689.00
2023-05-19T11:06:07.690Z,94691.00
2023-05-19T11:07:07.765Z,94691.00
2023-05-19T11:08:07.769Z,94691.00
2023-05-19T11:09:07.817Z,94689.00
2023-05-19T11:10:07.861Z,94687.00
2023-05-19T11:11:07.914Z,94685.00
2023-05-19T11:12:08.031Z,94685.00
2023-05-19T11:13:07.992Z,94683.00
2023-05-19T11:14:08.060Z,94681.00
2023-05-19T11:15:08.086Z,94683.00
2023-05-19T11:16:08.148Z,94679.00
2023-05-19T11:17:08.224Z,94675.00
2023-05-19T11:18:08.195Z,94677.00
2023-05-19T11:19:08.208Z,94675.00
2023-05-19T11:20:08.210Z,94673.00
2023-05-19T11:21:08.289Z,94671.00
2023-05-19T11:22:08.277Z,94667.00
2023-05-19T11:23:08.593Z,94667.00
2023-05-19T11:24:08.346Z,94665.00
2023-05-19T11:25:08.386Z,94662.00
2023-05-19T11:26:08.443Z,94660.00
2023-05-19T11:27:08.494Z,94660.00
2023-05-19T11:28:08.536Z,94660.00
2023-05-19T11:29:08.582Z,94660.00
2023-05-19T11:30:08.635Z,94658.00
2023-05-19T11:31:08.693Z,94660.00
2023-05-19T11:32:08.781Z,94658.00
2023-05-19T11:33:08.890Z,94660.00
2023-05-19T11:34:08.890Z,94650.00
2023-05-19T11:35:09.796Z,94660.00
2023-05-19T11:36:08.991Z,94648.00
2023-05-19T11:37:09.031Z,94646.00
2023-05-19T11:38:09.083Z,94646.00
2023-05-19T11:39:09.155Z,94644.00
2023-05-19T11:40:09.274Z,94642.00
2023-05-19T11:41:09.225Z,94638.00
2023-05-19T11:42:09.255Z,94638.00
2023-05-19T11:43:09.265Z,94638.00
2023-05-19T11:44:09.294Z,94630.00
2023-05-19T11:45:09.327Z,94630.00
2023-05-19T11:46:09.402Z,94628.00